Time;durP1;ratioP1;P1;durP2;ratioP2;P2;SDS_P1;SDS_P2;PMS_P1;PMS_P2;Temp;Humidity;BMP_temperature;BMP_pressure;BME280_temperature;BME280_humidity;BME280_pressure;Samples;Min_cycle;Max_cycle;Signal;HPM_P1;HPM_P2
2023/06/21 07:16:55;;;;;;;10.57;5.75;;;;;;;;;;6239279;22;20042;-96
2023/06/21 07:28:00;;;;;;;10.15;5.38;;;;;;;;;;6260689;22;20027;-95
2023/06/21 07:30:42;;;;;;;11.00;4.90;;;;;;;;;;6234643;23;20034;-96
2023/06/21 07:33:20;;;;;;;11.05;4.60;;;;;;;;;;6235463;23;19997;-95
2023/06/21 12:49:10;;;;;;;;;;;;;;;;;;;;;
2023/06/21 12:55:30;;;;;;;;;;;;;;;;;;;;;
2023/06/21 12:58:46;;;;;;;2.65;1.75;;;;;;;;;;6011129;23;20119;-96
2023/06/21 13:01:24;;;;;;;;;;;;;;;;;;;;;
2023/06/21 13:11:11;;;;;;;;;;;;;;;;;;;;;
2023/06/21 13:29:02;;;;;;;;;;;;;;;;;;;;;
2023/06/21 13:32:05;;;;;;;2.75;1.50;;;;;;;;;;6149113;23;20013;-96
2023/06/21 13:38:09;;;;;;;4.43;1.58;;;;;;;;;;6148081;23;20076;-95
2023/06/21 13:41:03;;;;;;;;;;;;;;;;;;;;;
2023/06/21 13:43:59;;;;;;;3.53;1.65;;;;;;;;;;6198394;23;19997;-96
2023/06/21 13:46:37;;;;;;;;;;;;;;;;;;;;;
2023/06/21 14:01:09;;;;;;;2.47;1.80;;;;;;;;;;6023517;23;20003;-95
2023/06/21 14:04:25;;;;;;;2.65;1.55;;;;;;;;;;6024179;23;20000;-95
2023/06/21 14:07:06;;;;;;;3.05;1.85;;;;;;;;;;6024134;23;20028;-95
2023/06/21 14:13:24;;;;;;;2.50;1.35;;;;;;;;;;5964394;23;20178;-96
2023/06/21 17:08:30;;;;;;;;;;;;;;;;;;;;;
2023/06/21 17:15:14;;;;;;;;;;;;;;;;;;;;;
2023/06/21 17:17:44;;;;;;;;;;;;;;;;;;;;;
2023/06/21 17:23:45;;;;;;;;;;;;;;;;;;;;;
2023/06/21 17:26:21;;;;;;;2.08;1.10;;;;;;;;;;6025682;23;20010;-95
2023/06/21 17:29:01;;;;;;;6.72;1.40;;;;;;;;;;6055963;23;19999;-95
2023/06/21 17:31:37;;;;;;;3.60;1.15;;;;;;;;;;6080589;23;20009;-94
2023/06/21 17:34:24;;;;;;;3.65;1.25;;;;;;;;;;6074397;23;20018;-94
2023/06/21 17:36:55;;;;;;;3.03;1.35;;;;;;;;;;6074352;23;20050;-93
2023/06/21 17:39:24;;;;;;;4.38;1.63;;;;;;;;;;6078025;23;20493;-95
2023/06/21 17:41:52;;;;;;;2.10;1.20;;;;;;;;;;6073927;23;19999;-94
2023/06/21 17:44:27;;;;;;;5.53;1.42;;;;;;;;;;6075758;23;20005;-93
2023/06/21 17:47:04;;;;;;;2.30;1.40;;;;;;;;;;6056760;23;20023;-94
2023/06/21 17:49:33;;;;;;;3.92;1.13;;;;;;;;;;6081986;23;20038;-95
2023/06/21 17:52:01;;;;;;;3.60;1.38;;;;;;;;;;6178606;23;19997;-94
2023/06/21 17:54:32;;;;;;;3.65;1.42;;;;;;;;;;6205241;23;20043;-94
2023/06/21 17:57:15;;;;;;;4.07;1.30;;;;;;;;;;6229826;23;20020;-94
2023/06/21 17:59:54;;;;;;;2.13;1.20;;;;;;;;;;6233490;23;19996;-95
2023/06/21 18:02:44;;;;;;;3.33;1.25;;;;;;;;;;6231954;23;20005;-94
2023/06/21 18:05:24;;;;;;;;;;;;;;;;;;;;;
2023/06/21 18:07:57;;;;;;;2.00;1.33;;;;;;;;;;6263098;23;20000;-94
2023/06/21 18:10:25;;;;;;;2.20;1.10;;;;;;;;;;6235905;23;20000;-95
2023/06/21 18:13:12;;;;;;;2.67;1.35;;;;;;;;;;6219440;23;20000;-95
2023/06/21 18:15:54;;;;;;;6.60;1.35;;;;;;;;;;6232433;23;20223;-94
2023/06/21 18:18:48;;;;;;;2.10;1.25;;;;;;;;;;6204757;23;20008;-94
2023/06/21 18:21:17;;;;;;;2.60;1.30;;;;;;;;;;6203814;23;20000;-95
2023/06/21 18:23:48;;;;;;;2.25;1.20;;;;;;;;;;6186597;23;19996;-94
2023/06/21 18:26:17;;;;;;;3.15;1.15;;;;;;;;;;6205576;23;20075;-95
2023/06/21 18:28:53;;;;;;;3.88;1.38;;;;;;;;;;6229602;23;20080;-93
2023/06/21 18:31:55;;;;;;;5.03;1.20;;;;;;;;;;6232142;23;20058;-95
2023/06/21 18:34:41;;;;;;;3.78;1.40;;;;;;;;;;6227444;23;20004;-96
2023/06/21 18:37:15;;;;;;;3.13;1.42;;;;;;;;;;6231302;23;20017;-94
2023/06/21 18:39:45;;;;;;;4.22;1.10;;;;;;;;;;6204606;23;20028;-95
2023/06/21 18:42:28;;;;;;;2.72;1.25;;;;;;;;;;6205356;23;20061;-94
2023/06/21 18:44:59;;;;;;;5.35;1.10;;;;;;;;;;6204249;23;20003;-95
2023/06/21 18:47:33;;;;;;;3.03;1.30;;;;;;;;;;6203923;23;20001;-94
2023/06/21 18:50:12;;;;;;;6.53;1.20;;;;;;;;;;6201794;23;20016;-94
2023/06/21 18:52:40;;;;;;;3.38;1.40;;;;;;;;;;6237824;23;20026;-93
2023/06/21 19:25:00;;;;;;;5.18;2.92;;;;;;;;;;6220734;22;19915;-95
